Time,TemperatureF,DewpointF,PressureIn,WindDirection,WindDirectionDegrees,WindSpeedMPH,WindSpeedGustMPH,Humidity,HourlyPrecipIn,Conditions,Clouds,dailyrainin,SoftwareType,DateUTC
2013-01-02 00:00:00,68.6,61.8,29.95,South,177,10.0,18.0,79,0.00,,---,0.00,VWS V14.01,2013-01-02 05:00:00,
2013-01-02 00:01:00,68.6,61.8,29.95,South,177,12.0,15.0,79,0.00,,---,0.00,VWS V14.01,2013-01-02 05:01:00,
2013-01-02 00:02:00,68.6,61.8,29.95,South,177,13.0,16.0,79,0.00,,---,0.00,VWS V14.01,2013-01-02 05:02:00,
2013-01-02 00:07:00,67.6,61.2,29.95,South,177,10.0,18.0,80,0.00,,---,0.00,VWS V14.01,2013-01-02 05:07:00,
2013-01-02 00:12:00,67.4,61.4,29.95,South,176,10.0,11.0,81,0.00,,---,0.00,VWS V14.01,2013-01-02 05:12:00,
2013-01-02 00:17:00,67.5,61.5,29.95,South,177,11.0,14.0,81,0.00,,---,0.00,VWS V14.01,2013-01-02 05:17:00,
2013-01-02 00:22:00,67.4,61.4,29.95,South,177,7.0,14.0,81,0.00,,---,0.00,VWS V14.01,2013-01-02 05:22:00,
2013-01-02 00:27:00,67.3,61.3,29.95,South,177,9.0,12.0,81,0.00,,---,0.00,VWS V14.01,2013-01-02 05:27:00,
2013-01-02 00:32:00,67.1,61.4,29.95,South,177,7.0,10.0,82,0.00,,---,0.00,VWS V14.01,2013-01-02 05:32:00,
2013-01-02 00:37:00,67.0,61.3,29.95,South,176,11.0,11.0,82,0.00,,---,0.00,VWS V14.01,2013-01-02 05:37:00,
2013-01-02 00:42:00,66.8,61.5,29.95,South,177,9.0,10.0,83,0.00,,---,0.00,VWS V14.01,2013-01-02 05:42:00,
2013-01-02 00:47:00,66.6,61.3,29.94,South,177,6.0,9.0,83,0.00,,---,0.00,VWS V14.01,2013-01-02 05:47:00,
2013-01-02 00:52:00,66.6,61.3,29.94,South,176,7.0,9.0,83,0.00,,---,0.00,VWS V14.01,2013-01-02 05:52:00,
2013-01-02 00:57:00,66.5,61.2,29.94,South,177,6.0,8.0,83,0.00,,---,0.00,VWS V14.01,2013-01-02 05:57:00,
2013-01-02 01:02:00,66.4,61.4,29.94,South,177,9.0,9.0,84,0.00,,---,0.00,VWS V14.01,2013-01-02 06:02:00,
2013-01-02 01:07:00,66.4,61.4,29.94,South,177,7.0,7.0,84,0.00,,---,0.00,VWS V14.01,2013-01-02 06:07:00,
2013-01-02 01:12:00,66.5,61.5,29.94,South,177,8.0,8.0,84,0.00,,---,0.00,VWS V14.01,2013-01-02 06:12:00,
2013-01-02 01:17:00,66.6,61.6,29.94,South,177,5.0,8.0,84,0.00,,---,0.00,VWS V14.01,2013-01-02 06:17:00,
2013-01-02 01:22:00,66.6,61.6,29.94,South,177,8.0,8.0,84,0.00,,---,0.00,VWS V14.01,2013-01-02 06:22:00,
2013-01-02 01:27:00,66.6,61.6,29.94,South,177,6.0,9.0,84,0.00,,---,0.00,VWS V14.01,2013-01-02 06:27:00,
2013-01-02 01:32:00,66.5,61.5,29.94,South,177,10.0,10.0,84,0.00,,---,0.00,VWS V14.01,2013-01-02 06:32:00,
2013-01-02 01:37:00,66.6,61.6,29.94,South,177,8.0,10.0,84,0.00,,---,0.00,VWS V14.01,2013-01-02 06:37:00,
2013-01-02 01:42:00,66.6,61.6,29.94,South,177,8.0,10.0,84,0.00,,---,0.00,VWS V14.01,2013-01-02 06:42:00,
2013-01-02 01:47:00,66.7,61.7,29.94,South,176,10.0,10.0,84,0.00,,---,0.00,VWS V14.01,2013-01-02 06:47:00,
2013-01-02 01:52:00,66.7,61.7,29.94,South,177,8.0,10.0,84,0.00,,---,0.00,VWS V14.01,2013-01-02 06:52:00,
2013-01-02 01:57:00,66.7,61.7,29.94,South,176,8.0,9.0,84,0.00,,---,0.00,VWS V14.01,2013-01-02 06:57:00,
2013-01-02 02:02:00,66.7,61.7,29.94,South,176,7.0,11.0,84,0.00,,---,0.00,VWS V14.01,2013-01-02 07:02:00,
2013-01-02 02:07:00,66.8,61.8,29.94,South,177,7.0,9.0,84,0.00,,---,0.00,VWS V14.01,2013-01-02 07:07:00,
2013-01-02 02:12:00,66.9,61.9,29.94,South,177,8.0,10.0,84,0.00,,---,0.00,VWS V14.01,2013-01-02 07:12:00,
2013-01-02 02:17:00,67.0,62.0,29.94,South,177,9.0,9.0,84,0.00,,---,0.00,VWS V14.01,2013-01-02 07:17:00,
2013-01-02 02:22:00,67.1,61.8,29.94,South,177,7.0,9.0,83,0.00,,---,0.00,VWS V14.01,2013-01-02 07:22:00,
2013-01-02 02:27:00,67.0,61.7,29.94,South,176,7.0,8.0,83,0.00,,---,0.00,VWS V14.01,2013-01-02 07:27:00,
2013-01-02 02:32:00,66.9,61.9,29.94,South,177,8.0,9.0,84,0.00,,---,0.00,VWS V14.01,2013-01-02 07:32:00,
2013-01-02 02:37:00,66.8,61.8,29.94,South,177,7.0,9.0,84,0.00,,---,0.00,VWS V14.01,2013-01-02 07:37:00,
2013-01-02 02:42:00,66.7,61.7,29.94,South,176,6.0,8.0,84,0.00,,---,0.00,VWS V14.01,2013-01-02 07:42:00,
2013-01-02 02:47:00,66.6,61.6,29.94,South,176,8.0,8.0,84,0.00,,---,0.00,VWS V14.01,2013-01-02 07:47:00,
2013-01-02 02:52:00,66.5,61.5,29.94,South,177,8.0,9.0,84,0.00,,---,0.00,VWS V14.01,2013-01-02 07:52:00,
2013-01-02 02:57:00,66.3,61.3,29.94,South,177,8.0,9.0,84,0.00,,---,0.00,VWS V14.01,2013-01-02 07:57:00,
2013-01-02 03:02:00,66.3,61.7,29.94,South,177,9.0,9.0,85,0.00,,---,0.00,VWS V14.01,2013-01-02 08:02:00,
2013-01-02 03:07:00,66.4,61.4,29.94,South,177,8.0,8.0,84,0.00,,---,0.00,VWS V14.01,2013-01-02 08:07:00,
2013-01-02 03:12:00,66.7,61.7,29.94,South,176,9.0,10.0,84,0.00,,---,0.00,VWS V14.01,2013-01-02 08:12:00,
2013-01-02 03:17:00,67.0,62.0,29.95,South,177,9.0,10.0,84,0.00,,---,0.00,VWS V14.01,2013-01-02 08:17:00,
2013-01-02 03:22:00,67.2,61.9,29.95,South,177,9.0,9.0,83,0.00,,---,0.00,VWS V14.01,2013-01-02 08:22:00,
2013-01-02 03:27:00,67.5,62.2,29.95,South,176,10.0,10.0,83,0.00,,---,0.00,VWS V14.01,2013-01-02 08:27:00,
2013-01-02 03:32:00,68.1,62.4,29.95,South,177,8.0,10.0,82,0.00,,---,0.00,VWS V14.01,2013-01-02 08:32:00,
2013-01-02 03:37:00,68.4,62.3,29.95,South,177,9.0,10.0,81,0.00,,---,0.00,VWS V14.01,2013-01-02 08:37:00,
2013-01-02 03:42:00,68.3,62.2,29.95,South,177,9.0,10.0,81,0.00,,---,0.00,VWS V14.01,2013-01-02 08:42:00,
2013-01-02 03:47:00,68.3,62.2,29.95,South,176,9.0,9.0,81,0.00,,---,0.00,VWS V14.01,2013-01-02 08:47:00,
2013-01-02 03:52:00,68.4,62.3,29.95,South,177,8.0,10.0,81,0.00,,---,0.00,VWS V14.01,2013-01-02 08:52:00,
2013-01-02 03:57:00,68.4,62.3,29.95,South,177,8.0,9.0,81,0.00,,---,0.00,VWS V14.01,2013-01-02 08:57:00,
2013-01-02 04:02:00,68.5,62.5,29.94,South,177,7.0,9.0,81,0.00,,---,0.00,VWS V14.01,2013-01-02 09:02:00,
2013-01-02 04:07:00,68.3,61.9,29.94,South,176,7.0,8.0,80,0.00,,---,0.00,VWS V14.01,2013-01-02 09:07:00,
2013-01-02 04:12:00,68.3,62.2,29.94,South,177,6.0,7.0,81,0.00,,---,0.00,VWS V14.01,2013-01-02 09:12:00,
2013-01-02 04:17:00,68.3,62.2,29.94,South,177,8.0,8.0,81,0.00,,---,0.00,VWS V14.01,2013-01-02 09:17:00,
2013-01-02 04:22:00,68.2,62.2,29.94,South,177,5.0,6.0,81,0.00,,---,0.00,VWS V14.01,2013-01-02 09:22:00,
2013-01-02 04:27:00,68.3,62.2,29.94,South,177,7.0,8.0,81,0.00,,---,0.00,VWS V14.01,2013-01-02 09:27:00,
2013-01-02 04:32:00,68.1,62.1,29.94,South,177,5.0,6.0,81,0.00,,---,0.00,VWS V14.01,2013-01-02 09:32:00,
2013-01-02 04:37:00,68.0,62.3,29.94,South,176,10.0,10.0,82,0.00,,---,0.00,VWS V14.01,2013-01-02 09:37:00,
2013-01-02 04:42:00,68.1,62.4,29.94,South,176,10.0,10.0,82,0.00,,---,0.00,VWS V14.01,2013-01-02 09:42:00,
2013-01-02 04:47:00,68.0,62.3,29.94,South,177,10.0,10.0,82,0.00,,---,0.00,VWS V14.01,2013-01-02 09:47:00,
2013-01-02 04:52:00,68.0,62.3,29.94,South,177,10.0,11.0,82,0.00,,---,0.00,VWS V14.01,2013-01-02 09:52:00,
2013-01-02 04:57:00,67.8,62.1,29.94,South,177,10.0,11.0,82,0.00,,---,0.00,VWS V14.01,2013-01-02 09:57:00,
2013-01-02 05:02:00,67.6,62.3,29.94,South,177,8.0,8.0,83,0.00,,---,0.00,VWS V14.01,2013-01-02 10:02:00,
2013-01-02 05:07:00,67.4,62.1,29.94,South,177,6.0,8.0,83,0.00,,---,0.00,VWS V14.01,2013-01-02 10:07:00,
2013-01-02 05:12:00,67.1,61.8,29.94,South,177,6.0,7.0,83,0.00,,---,0.00,VWS V14.01,2013-01-02 10:12:00,
2013-01-02 05:17:00,66.9,61.9,29.94,South,176,5.0,8.0,84,0.00,,---,0.00,VWS V14.01,2013-01-02 10:17:00,
2013-01-02 05:22:00,66.7,61.7,29.94,South,176,8.0,8.0,84,0.00,,---,0.00,VWS V14.01,2013-01-02 10:22:00,
2013-01-02 05:27:00,66.5,61.5,29.94,South,177,7.0,8.0,84,0.00,,---,0.00,VWS V14.01,2013-01-02 10:27:00,
2013-01-02 05:32:00,65.9,61.3,29.94,South,177,9.0,10.0,85,0.00,,---,0.00,VWS V14.01,2013-01-02 10:32:00,
2013-01-02 05:37:00,65.5,61.2,29.94,South,176,8.0,9.0,86,0.00,,---,0.00,VWS V14.01,2013-01-02 10:37:00,
2013-01-02 05:42:00,65.3,61.0,29.94,South,176,8.0,9.0,86,0.00,,---,0.00,VWS V14.01,2013-01-02 10:42:00,
2013-01-02 05:47:00,65.2,60.9,29.94,South,177,8.0,9.0,86,0.00,,---,0.00,VWS V14.01,2013-01-02 10:47:00,
2013-01-02 05:52:00,65.1,61.1,29.94,South,177,7.0,9.0,87,0.00,,---,0.00,VWS V14.01,2013-01-02 10:52:00,
2013-01-02 05:57:00,65.0,61.0,29.94,South,177,9.0,10.0,87,0.00,,---,0.00,VWS V14.01,2013-01-02 10:57:00,
2013-01-02 06:02:00,65.2,61.2,29.95,South,177,9.0,10.0,87,0.00,,---,0.00,VWS V14.01,2013-01-02 11:02:00,
2013-01-02 06:07:00,65.4,61.1,29.95,South,177,10.0,10.0,86,0.00,,---,0.00,VWS V14.01,2013-01-02 11:07:00,
2013-01-02 06:12:00,65.5,61.2,29.95,South,177,8.0,10.0,86,0.00,,---,0.00,VWS V14.01,2013-01-02 11:12:00,
2013-01-02 06:17:00,65.6,61.0,29.95,South,177,7.0,9.0,85,0.00,,---,0.00,VWS V14.01,2013-01-02 11:17:00,
2013-01-02 06:22:00,65.6,61.0,29.95,South,177,9.0,9.0,85,0.00,,---,0.00,VWS V14.01,2013-01-02 11:22:00,
2013-01-02 06:27:00,66.1,61.1,29.95,South,177,9.0,9.0,84,0.00,,---,0.00,VWS V14.01,2013-01-02 11:27:00,
2013-01-02 06:32:00,66.5,61.2,29.96,South,176,10.0,11.0,83,0.00,,---,0.00,VWS V14.01,2013-01-02 11:32:00,
2013-01-02 06:37:00,66.6,60.9,29.96,South,177,9.0,10.0,82,0.00,,---,0.00,VWS V14.01,2013-01-02 11:37:00,
2013-01-02 06:42:00,66.8,60.8,29.96,South,177,8.0,9.0,81,0.00,,---,0.00,VWS V14.01,2013-01-02 11:42:00,
2013-01-02 06:47:00,67.2,61.2,29.96,South,177,6.0,8.0,81,0.00,,---,0.00,VWS V14.01,2013-01-02 11:47:00,
2013-01-02 06:52:00,67.4,61.0,29.96,South,176,7.0,7.0,80,0.00,,---,0.00,VWS V14.01,2013-01-02 11:52:00,
2013-01-02 06:57:00,67.6,61.6,29.96,South,177,7.0,7.0,81,0.00,,---,0.00,VWS V14.01,2013-01-02 11:57:00,
2013-01-02 07:02:00,67.4,61.4,29.96,South,177,6.0,7.0,81,0.00,,---,0.00,VWS V14.01,2013-01-02 12:02:00,
2013-01-02 07:07:00,67.3,61.6,29.96,South,177,6.0,7.0,82,0.00,,---,0.00,VWS V14.01,2013-01-02 12:07:00,
2013-01-02 07:12:00,66.8,60.8,29.96,South,177,7.0,9.0,81,0.00,,---,0.00,VWS V14.01,2013-01-02 12:12:00,
2013-01-02 07:17:00,66.2,60.5,29.97,South,177,7.0,8.0,82,0.00,,---,0.00,VWS V14.01,2013-01-02 12:17:00,
2013-01-02 07:22:00,66.0,60.7,29.97,South,176,7.0,8.0,83,0.00,,---,0.00,VWS V14.01,2013-01-02 12:22:00,
2013-01-02 07:27:00,65.6,60.6,29.97,South,177,8.0,8.0,84,0.00,,---,0.00,VWS V14.01,2013-01-02 12:27:00,
2013-01-02 07:32:00,65.4,60.8,29.96,South,177,6.0,7.0,85,0.00,,---,0.00,VWS V14.01,2013-01-02 12:32:00,
2013-01-02 07:37:00,65.2,60.6,29.96,South,177,7.0,8.0,85,0.00,,---,0.00,VWS V14.01,2013-01-02 12:37:00,
2013-01-02 07:42:00,65.0,60.4,29.96,South,177,7.0,9.0,85,0.00,,---,0.00,VWS V14.01,2013-01-02 12:42:00,
2013-01-02 07:47:00,64.9,60.6,29.97,South,177,6.0,8.0,86,0.00,,---,0.00,VWS V14.01,2013-01-02 12:47:00,
2013-01-02 07:52:00,64.7,60.8,29.97,South,177,8.0,8.0,87,0.00,,---,0.00,VWS V14.01,2013-01-02 12:52:00,
2013-01-02 07:57:00,64.5,60.5,29.97,South,176,8.0,9.0,87,0.00,,---,0.00,VWS V14.01,2013-01-02 12:57:00,
2013-01-02 08:02:00,64.5,60.9,29.97,South,176,7.0,8.0,88,0.00,,---,0.00,VWS V14.01,2013-01-02 13:02:00,
2013-01-02 08:07:00,64.5,60.9,29.97,South,177,6.0,8.0,88,0.00,,---,0.00,VWS V14.01,2013-01-02 13:07:00,
2013-01-02 08:12:00,64.7,61.4,29.97,South,177,10.0,11.0,89,0.00,,---,0.00,VWS V14.01,2013-01-02 13:12:00,
2013-01-02 08:17:00,64.7,61.4,29.97,South,177,10.0,10.0,89,0.00,,---,0.00,VWS V14.01,2013-01-02 13:17:00,
2013-01-02 08:22:00,64.8,61.5,29.97,South,177,8.0,10.0,89,0.00,,---,0.00,VWS V14.01,2013-01-02 13:22:00,
2013-01-02 08:27:00,65.0,61.7,29.97,South,177,9.0,10.0,89,0.00,,---,0.00,VWS V14.01,2013-01-02 13:27:00,
2013-01-02 08:32:00,65.1,61.8,29.97,South,177,2.0,9.0,89,0.00,,---,0.00,VWS V14.01,2013-01-02 13:32:00,
2013-01-02 08:37:00,65.3,62.0,29.97,South,177,8.0,8.0,89,0.00,,---,0.00,VWS V14.01,2013-01-02 13:37:00,
2013-01-02 08:42:00,65.5,62.5,29.97,South,177,8.0,9.0,90,0.00,,---,0.00,VWS V14.01,2013-01-02 13:42:00,
2013-01-02 08:47:00,65.7,62.4,29.97,South,177,6.0,9.0,89,0.00,,---,0.00,VWS V14.01,2013-01-02 13:47:00,
2013-01-02 08:52:00,65.9,62.6,29.97,South,177,9.0,11.0,89,0.00,,---,0.00,VWS V14.01,2013-01-02 13:52:00,
2013-01-02 08:57:00,66.1,62.8,29.97,South,177,7.0,9.0,89,0.00,,---,0.00,VWS V14.01,2013-01-02 13:57:00,
2013-01-02 09:02:00,66.4,63.1,29.98,South,177,8.0,10.0,89,0.00,,---,0.00,VWS V14.01,2013-01-02 14:02:00,
2013-01-02 09:07:00,66.7,63.4,29.98,South,177,0.0,2.0,89,0.00,,---,0.00,VWS V14.01,2013-01-02 14:07:00,
2013-01-02 09:12:00,67.0,63.7,29.98,South,177,0.0,0.0,89,0.00,,---,0.00,VWS V14.01,2013-01-02 14:12:00,
2013-01-02 09:17:00,67.4,64.1,29.98,South,177,0.0,0.0,89,0.00,,---,0.00,VWS V14.01,2013-01-02 14:17:00,
2013-01-02 09:22:00,67.9,64.5,29.98,South,177,0.0,4.0,89,0.00,,---,0.00,VWS V14.01,2013-01-02 14:22:00,
2013-01-02 09:27:00,68.4,64.7,29.98,South,177,0.0,0.0,88,0.00,,---,0.00,VWS V14.01,2013-01-02 14:27:00,
2013-01-02 09:32:00,68.8,64.8,29.98,South,177,0.0,0.0,87,0.00,,---,0.00,VWS V14.01,2013-01-02 14:32:00,
2013-01-02 09:37:00,69.2,65.2,29.98,South,177,0.0,1.0,87,0.00,,---,0.00,VWS V14.01,2013-01-02 14:37:00,
2013-01-02 09:42:00,69.7,65.3,29.98,South,177,4.0,7.0,86,0.00,,---,0.00,VWS V14.01,2013-01-02 14:42:00,
2013-01-02 09:47:00,70.2,65.5,29.99,South,177,5.0,5.0,85,0.00,,---,0.00,VWS V14.01,2013-01-02 14:47:00,
2013-01-02 09:52:00,70.7,65.6,29.99,South,177,0.0,0.0,84,0.00,,---,0.00,VWS V14.01,2013-01-02 14:52:00,
2013-01-02 09:57:00,71.2,66.1,29.99,South,177,7.0,9.0,84,0.00,,---,0.00,VWS V14.01,2013-01-02 14:57:00,
2013-01-02 10:02:00,71.4,65.6,29.99,South,177,4.0,8.0,82,0.00,,---,0.00,VWS V14.01,2013-01-02 15:02:00,
2013-01-02 10:07:00,71.7,65.9,29.99,South,177,7.0,7.0,82,0.00,,---,0.00,VWS V14.01,2013-01-02 15:07:00,
2013-01-02 10:12:00,72.0,65.9,29.99,South,177,6.0,9.0,81,0.00,,---,0.00,VWS V14.01,2013-01-02 15:12:00,
2013-01-02 10:17:00,72.2,66.1,29.99,South,177,2.0,8.0,81,0.00,,---,0.00,VWS V14.01,2013-01-02 15:17:00,
2013-01-02 10:22:00,72.5,66.0,29.99,South,177,7.0,10.0,80,0.00,,---,0.00,VWS V14.01,2013-01-02 15:22:00,
2013-01-02 10:27:00,72.8,65.9,29.99,South,177,9.0,9.0,79,0.00,,---,0.00,VWS V14.01,2013-01-02 15:27:00,
2013-01-02 10:32:00,73.2,65.9,29.99,South,177,8.0,10.0,78,0.00,,---,0.00,VWS V14.01,2013-01-02 15:32:00,
2013-01-02 10:37:00,73.2,65.9,29.99,South,177,9.0,10.0,78,0.00,,---,0.00,VWS V14.01,2013-01-02 15:37:00,
2013-01-02 10:42:00,73.5,65.9,29.99,South,176,8.0,10.0,77,0.00,,---,0.00,VWS V14.01,2013-01-02 15:42:00,
2013-01-02 10:47:00,73.3,65.7,29.98,South,177,6.0,9.0,77,0.00,,---,0.00,VWS V14.01,2013-01-02 15:47:00,
2013-01-02 10:52:00,73.5,65.9,29.98,South,177,9.0,12.0,77,0.00,,---,0.00,VWS V14.01,2013-01-02 15:52:00,
2013-01-02 10:57:00,73.4,65.4,29.98,South,177,9.0,9.0,76,0.00,,---,0.00,VWS V14.01,2013-01-02 15:57:00,
2013-01-02 11:02:00,73.4,65.8,29.98,South,177,6.0,9.0,77,0.00,,---,0.00,VWS V14.01,2013-01-02 16:02:00,
2013-01-02 11:07:00,73.7,65.7,29.98,South,177,10.0,11.0,76,0.00,,---,0.00,VWS V14.01,2013-01-02 16:07:00,
2013-01-02 11:12:00,74.1,65.7,29.98,South,177,6.0,10.0,75,0.00,,---,0.00,VWS V14.01,2013-01-02 16:12:00,
2013-01-02 11:17:00,74.3,65.1,29.97,South,177,4.0,10.0,73,0.00,,---,0.00,VWS V14.01,2013-01-02 16:17:00,
2013-01-02 11:22:00,74.7,65.5,29.97,South,177,8.0,10.0,73,0.00,,---,0.00,VWS V14.01,2013-01-02 16:22:00,
2013-01-02 11:27:00,74.7,65.1,29.97,South,177,4.0,10.0,72,0.00,,---,0.00,VWS V14.01,2013-01-02 16:27:00,
2013-01-02 11:32:00,74.8,64.8,29.97,South,177,7.0,9.0,71,0.00,,---,0.00,VWS V14.01,2013-01-02 16:32:00,
2013-01-02 11:37:00,74.9,64.9,29.97,South,177,0.0,5.0,71,0.00,,---,0.00,VWS V14.01,2013-01-02 16:37:00,
2013-01-02 11:42:00,75.2,64.8,29.97,South,177,8.0,10.0,70,0.00,,---,0.00,VWS V14.01,2013-01-02 16:42:00,
2013-01-02 11:47:00,75.3,65.3,29.96,South,177,9.0,9.0,71,0.00,,---,0.00,VWS V14.01,2013-01-02 16:47:00,
2013-01-02 11:52:00,75.2,65.2,29.96,South,177,7.0,8.0,71,0.00,,---,0.00,VWS V14.01,2013-01-02 16:52:00,
2013-01-02 11:57:00,75.1,65.1,29.96,South,177,10.0,11.0,71,0.00,,---,0.00,VWS V14.01,2013-01-02 16:57:00,
2013-01-02 12:02:00,74.5,64.9,29.95,South,176,7.0,10.0,72,0.00,,---,0.00,VWS V14.01,2013-01-02 17:02:00,
2013-01-02 12:07:00,74.3,64.7,29.95,South,177,8.0,10.0,72,0.00,,---,0.00,VWS V14.01,2013-01-02 17:07:00,
2013-01-02 12:12:00,74.3,64.7,29.95,South,177,5.0,7.0,72,0.00,,---,0.00,VWS V14.01,2013-01-02 17:12:00,
2013-01-02 12:17:00,74.6,65.0,29.94,South,177,0.0,0.0,72,0.00,,---,0.00,VWS V14.01,2013-01-02 17:17:00,
2013-01-02 12:22:00,75.1,64.7,29.94,South,177,5.0,8.0,70,0.00,,---,0.00,VWS V14.01,2013-01-02 17:22:00,
2013-01-02 12:27:00,75.5,64.6,29.94,South,177,0.0,7.0,69,0.00,,---,0.00,VWS V14.01,2013-01-02 17:27:00,
2013-01-02 12:32:00,75.9,64.6,29.94,South,177,0.0,0.0,68,0.00,,---,0.00,VWS V14.01,2013-01-02 17:32:00,
2013-01-02 12:37:00,75.8,64.9,29.94,South,177,5.0,9.0,69,0.00,,---,0.00,VWS V14.01,2013-01-02 17:37:00,
2013-01-02 12:42:00,75.7,64.0,29.94,South,177,9.0,11.0,67,0.00,,---,0.00,VWS V14.01,2013-01-02 17:42:00,
2013-01-02 12:47:00,75.5,63.4,29.93,South,177,6.0,7.0,66,0.00,,---,0.00,VWS V14.01,2013-01-02 17:47:00,
2013-01-02 12:52:00,75.9,64.2,29.93,South,177,6.0,7.0,67,0.00,,---,0.00,VWS V14.01,2013-01-02 17:52:00,
2013-01-02 12:57:00,75.9,64.2,29.93,South,177,9.0,10.0,67,0.00,,---,0.00,VWS V14.01,2013-01-02 17:57:00,
2013-01-02 13:02:00,75.7,64.0,29.92,South,177,8.0,10.0,67,0.00,,---,0.00,VWS V14.01,2013-01-02 18:02:00,
2013-01-02 13:07:00,75.6,63.0,29.92,South,177,8.0,8.0,65,0.00,,---,0.00,VWS V14.01,2013-01-02 18:07:00,
2013-01-02 13:12:00,75.6,63.5,29.92,South,176,0.0,5.0,66,0.00,,---,0.00,VWS V14.01,2013-01-02 18:12:00,
2013-01-02 13:17:00,75.7,64.0,29.91,South,176,6.0,8.0,67,0.00,,---,0.00,VWS V14.01,2013-01-02 18:17:00,
2013-01-02 13:22:00,76.2,64.0,29.91,South,176,6.0,9.0,66,0.00,,---,0.00,VWS V14.01,2013-01-02 18:22:00,
2013-01-02 13:27:00,76.9,64.2,29.91,South,176,10.0,10.0,65,0.00,,---,0.00,VWS V14.01,2013-01-02 18:27:00,
2013-01-02 13:32:00,76.8,64.2,29.91,South,176,9.0,10.0,65,0.00,,---,0.00,VWS V14.01,2013-01-02 18:32:00,
2013-01-02 13:37:00,76.9,63.8,29.91,South,177,8.0,8.0,64,0.00,,---,0.00,VWS V14.01,2013-01-02 18:37:00,
2013-01-02 13:42:00,77.6,64.5,29.91,South,177,9.0,10.0,64,0.00,,---,0.00,VWS V14.01,2013-01-02 18:42:00,
2013-01-02 13:47:00,77.6,63.6,29.90,South,176,7.0,13.0,62,0.00,,---,0.00,VWS V14.01,2013-01-02 18:47:00,
2013-01-02 13:52:00,77.2,64.1,29.90,South,177,6.0,11.0,64,0.00,,---,0.00,VWS V14.01,2013-01-02 18:52:00,
2013-01-02 13:57:00,76.9,64.2,29.90,South,176,8.0,9.0,65,0.00,,---,0.00,VWS V14.01,2013-01-02 18:57:00,
2013-01-02 14:02:00,76.9,64.7,29.90,South,177,8.0,9.0,66,0.00,,---,0.00,VWS V14.01,2013-01-02 19:02:00,
2013-01-02 14:07:00,77.2,64.5,29.90,South,177,0.0,0.0,65,0.00,,---,0.00,VWS V14.01,2013-01-02 19:07:00,
2013-01-02 14:12:00,77.4,63.8,29.90,South,176,5.0,8.0,63,0.00,,---,0.00,VWS V14.01,2013-01-02 19:12:00,
2013-01-02 14:17:00,77.3,64.2,29.89,South,176,0.0,10.0,64,0.00,,---,0.00,VWS V14.01,2013-01-02 19:17:00,
2013-01-02 14:22:00,77.6,64.0,29.89,South,176,6.0,9.0,63,0.00,,---,0.00,VWS V14.01,2013-01-02 19:22:00,
2013-01-02 14:27:00,77.9,64.3,29.89,South,176,0.0,2.0,63,0.00,,---,0.00,VWS V14.01,2013-01-02 19:27:00,
2013-01-02 14:32:00,78.4,63.4,29.89,South,176,2.0,2.0,60,0.00,,---,0.00,VWS V14.01,2013-01-02 19:32:00,
2013-01-02 14:37:00,79.0,63.5,29.89,South,177,0.0,0.0,59,0.00,,---,0.00,VWS V14.01,2013-01-02 19:37:00,
2013-01-02 14:42:00,79.0,63.9,29.89,South,176,5.0,5.0,60,0.00,,---,0.00,VWS V14.01,2013-01-02 19:42:00,
2013-01-02 14:47:00,79.1,64.0,29.88,South,176,0.0,0.0,60,0.00,,---,0.00,VWS V14.01,2013-01-02 19:47:00,
2013-01-02 14:52:00,79.3,63.7,29.88,South,176,0.0,9.0,59,0.00,,---,0.00,VWS V14.01,2013-01-02 19:52:00,
2013-01-02 14:57:00,79.5,63.9,29.88,South,176,8.0,11.0,59,0.00,,---,0.00,VWS V14.01,2013-01-02 19:57:00,
2013-01-02 15:02:00,79.2,63.7,29.88,South,177,1.0,10.0,59,0.00,,---,0.00,VWS V14.01,2013-01-02 20:02:00,
2013-01-02 15:07:00,79.1,64.0,29.88,South,177,0.0,0.0,60,0.00,,---,0.00,VWS V14.01,2013-01-02 20:07:00,
2013-01-02 15:12:00,78.9,63.8,29.88,South,177,7.0,8.0,60,0.00,,---,0.00,VWS V14.01,2013-01-02 20:12:00,
2013-01-02 15:17:00,78.8,63.8,29.89,South,176,7.0,8.0,60,0.00,,---,0.00,VWS V14.01,2013-01-02 20:17:00,
2013-01-02 15:22:00,78.6,63.6,29.89,South,176,7.0,9.0,60,0.00,,---,0.00,VWS V14.01,2013-01-02 20:22:00,
2013-01-02 15:27:00,78.5,64.4,29.89,South,176,0.0,6.0,62,0.00,,---,0.00,VWS V14.01,2013-01-02 20:27:00,
2013-01-02 15:32:00,78.1,64.0,29.89,South,177,6.0,9.0,62,0.00,,---,0.00,VWS V14.01,2013-01-02 20:32:00,
2013-01-02 15:37:00,77.9,64.3,29.89,South,177,0.0,0.0,63,0.00,,---,0.00,VWS V14.01,2013-01-02 20:37:00,
2013-01-02 15:42:00,78.0,64.8,29.89,South,176,0.0,0.0,64,0.00,,---,0.00,VWS V14.01,2013-01-02 20:42:00,
2013-01-02 15:47:00,78.3,64.2,29.89,South,177,1.0,6.0,62,0.00,,---,0.00,VWS V14.01,2013-01-02 20:47:00,
2013-01-02 15:52:00,78.4,63.8,29.89,South,176,0.0,0.0,61,0.00,,---,0.00,VWS V14.01,2013-01-02 20:52:00,
2013-01-02 15:57:00,78.3,63.8,29.89,South,176,0.0,1.0,61,0.00,,---,0.00,VWS V14.01,2013-01-02 20:57:00,
2013-01-02 16:02:00,78.1,63.6,29.89,South,177,0.0,0.0,61,0.00,,---,0.00,VWS V14.01,2013-01-02 21:02:00,
2013-01-02 16:07:00,78.1,63.6,29.89,South,176,0.0,0.0,61,0.00,,---,0.00,VWS V14.01,2013-01-02 21:07:00,
2013-01-02 16:12:00,78.1,64.5,29.89,South,176,0.0,1.0,63,0.00,,---,0.00,VWS V14.01,2013-01-02 21:12:00,
2013-01-02 16:17:00,78.0,67.0,29.90,South,177,0.0,0.0,69,0.00,,---,0.00,VWS V14.01,2013-01-02 21:17:00,
2013-01-02 16:22:00,77.5,66.9,29.90,South,177,0.0,0.0,70,0.00,,---,0.00,VWS V14.01,2013-01-02 21:22:00,
2013-01-02 16:27:00,76.7,66.6,29.90,South,176,0.0,0.0,71,0.00,,---,0.00,VWS V14.01,2013-01-02 21:27:00,
2013-01-02 16:32:00,76.1,66.4,29.90,South,177,0.0,6.0,72,0.00,,---,0.00,VWS V14.01,2013-01-02 21:32:00,
2013-01-02 16:37:00,75.8,66.9,29.90,South,177,0.0,0.0,74,0.00,,---,0.00,VWS V14.01,2013-01-02 21:37:00,
2013-01-02 16:42:00,75.4,66.5,29.90,South,177,0.0,0.0,74,0.00,,---,0.00,VWS V14.01,2013-01-02 21:42:00,
2013-01-02 16:47:00,74.9,65.7,29.90,South,177,0.0,0.0,73,0.00,,---,0.00,VWS V14.01,2013-01-02 21:47:00,
2013-01-02 16:52:00,74.9,66.4,29.90,South,177,0.0,0.0,75,0.00,,---,0.00,VWS V14.01,2013-01-02 21:52:00,
2013-01-02 16:57:00,74.7,66.3,29.90,South,177,0.0,0.0,75,0.00,,---,0.00,VWS V14.01,2013-01-02 21:57:00,
2013-01-02 17:02:00,74.6,66.5,29.90,South,177,0.0,0.0,76,0.00,,---,0.00,VWS V14.01,2013-01-02 22:02:00,
2013-01-02 17:07:00,74.3,65.9,29.90,South,177,0.0,0.0,75,0.00,,---,0.00,VWS V14.01,2013-01-02 22:07:00,
2013-01-02 17:12:00,74.4,66.3,29.90,South,177,0.0,0.0,76,0.00,,---,0.00,VWS V14.01,2013-01-02 22:12:00,
2013-01-02 17:17:00,74.2,66.5,29.91,South,177,0.0,0.0,77,0.00,,---,0.00,VWS V14.01,2013-01-02 22:17:00,
2013-01-02 17:22:00,74.1,66.4,29.91,South,177,0.0,0.0,77,0.00,,---,0.00,VWS V14.01,2013-01-02 22:22:00,
2013-01-02 17:27:00,73.9,66.2,29.91,South,177,0.0,2.0,77,0.00,,---,0.00,VWS V14.01,2013-01-02 22:27:00,
2013-01-02 17:32:00,73.8,66.2,29.91,South,177,0.0,0.0,77,0.00,,---,0.00,VWS V14.01,2013-01-02 22:32:00,
2013-01-02 17:37:00,73.9,66.6,29.91,South,177,0.0,0.0,78,0.00,,---,0.00,VWS V14.01,2013-01-02 22:37:00,
2013-01-02 17:42:00,73.8,66.5,29.91,South,177,0.0,1.0,78,0.00,,---,0.00,VWS V14.01,2013-01-02 22:42:00,
2013-01-02 17:47:00,73.9,67.0,29.91,South,177,0.0,0.0,79,0.00,,---,0.00,VWS V14.01,2013-01-02 22:47:00,
2013-01-02 17:52:00,73.7,66.4,29.91,South,176,0.0,0.0,78,0.00,,---,0.00,VWS V14.01,2013-01-02 22:52:00,
2013-01-02 17:57:00,73.7,66.8,29.91,South,177,0.0,0.0,79,0.00,,---,0.00,VWS V14.01,2013-01-02 22:57:00,
2013-01-02 18:02:00,73.8,66.9,29.92,South,176,0.0,0.0,79,0.00,,---,0.00,VWS V14.01,2013-01-02 23:02:00,
2013-01-02 18:07:00,73.6,66.7,29.92,South,177,0.0,0.0,79,0.00,,---,0.00,VWS V14.01,2013-01-02 23:07:00,
2013-01-02 18:12:00,73.7,66.8,29.92,South,177,0.0,0.0,79,0.00,,---,0.00,VWS V14.01,2013-01-02 23:12:00,
2013-01-02 18:17:00,73.7,67.2,29.92,South,176,0.0,0.0,80,0.00,,---,0.00,VWS V14.01,2013-01-02 23:17:00,
2013-01-02 18:22:00,73.5,66.6,29.92,South,177,0.0,0.0,79,0.00,,---,0.00,VWS V14.01,2013-01-02 23:22:00,
2013-01-02 18:27:00,73.4,66.5,29.92,South,177,0.0,0.0,79,0.00,,---,0.00,VWS V14.01,2013-01-02 23:27:00,
2013-01-02 18:32:00,73.6,67.1,29.93,South,176,0.0,0.0,80,0.00,,---,0.00,VWS V14.01,2013-01-02 23:32:00,
2013-01-02 18:37:00,73.6,67.1,29.93,South,177,0.0,0.0,80,0.00,,---,0.00,VWS V14.01,2013-01-02 23:37:00,
2013-01-02 18:42:00,73.7,67.5,29.93,South,177,0.0,0.0,81,0.00,,---,0.00,VWS V14.01,2013-01-02 23:42:00,
2013-01-02 18:47:00,73.4,67.2,29.93,South,176,0.0,0.0,81,0.00,,---,0.00,VWS V14.01,2013-01-02 23:47:00,
2013-01-02 18:52:00,73.3,67.5,29.93,South,177,0.0,0.0,82,0.00,,---,0.00,VWS V14.01,2013-01-02 23:52:00,
2013-01-02 18:57:00,73.3,67.5,29.93,South,176,0.0,0.0,82,0.00,,---,0.00,VWS V14.01,2013-01-02 23:57:00,
2013-01-02 19:02:00,73.3,67.5,29.93,South,176,0.0,0.0,82,0.00,,---,0.00,VWS V14.01,2013-01-03 00:02:00,
2013-01-02 19:07:00,73.3,67.8,29.93,South,177,0.0,0.0,83,0.00,,---,0.00,VWS V14.01,2013-01-03 00:07:00,
2013-01-02 19:12:00,73.3,67.8,29.93,South,176,0.0,0.0,83,0.00,,---,0.00,VWS V14.01,2013-01-03 00:12:00,
2013-01-02 19:18:00,73.2,67.7,29.93,South,177,0.0,0.0,83,0.00,,---,0.00,VWS V14.01,2013-01-03 00:18:00,
2013-01-02 19:23:00,73.4,67.9,29.93,South,176,0.0,0.0,83,0.00,,---,0.00,VWS V14.01,2013-01-03 00:23:00,
2013-01-02 19:28:00,73.3,67.8,29.93,South,177,0.0,0.0,83,0.00,,---,0.00,VWS V14.01,2013-01-03 00:28:00,
2013-01-02 19:33:00,72.9,67.1,29.93,South,177,0.0,0.0,82,0.00,,---,0.00,VWS V14.01,2013-01-03 00:33:00,
2013-01-02 19:38:00,73.1,67.3,29.93,South,177,0.0,0.0,82,0.00,,---,0.00,VWS V14.01,2013-01-03 00:38:00,
2013-01-02 19:43:00,73.0,66.8,29.93,South,177,0.0,0.0,81,0.00,,---,0.00,VWS V14.01,2013-01-03 00:43:00,
2013-01-02 19:48:00,73.1,66.6,29.94,South,177,0.0,0.0,80,0.00,,---,0.00,VWS V14.01,2013-01-03 00:48:00,
2013-01-02 19:53:00,73.4,66.9,29.94,South,177,0.0,0.0,80,0.00,,---,0.00,VWS V14.01,2013-01-03 00:53:00,
2013-01-02 19:58:00,73.6,67.4,29.94,South,177,0.0,0.0,81,0.00,,---,0.00,VWS V14.01,2013-01-03 00:58:00,
2013-01-02 20:03:00,73.5,67.7,29.94,South,176,0.0,0.0,82,0.00,,---,0.00,VWS V14.01,2013-01-03 01:03:00,
2013-01-02 20:08:00,73.1,67.3,29.94,South,177,0.0,0.0,82,0.00,,---,0.00,VWS V14.01,2013-01-03 01:08:00,
2013-01-02 20:13:00,73.1,66.2,29.94,South,177,0.0,0.0,79,0.00,,---,0.00,VWS V14.01,2013-01-03 01:13:00,
2013-01-02 20:18:00,73.5,66.2,29.94,South,176,0.0,0.0,78,0.00,,---,0.00,VWS V14.01,2013-01-03 01:18:00,
2013-01-02 20:23:00,73.9,67.7,29.94,South,176,0.0,0.0,81,0.00,,---,0.00,VWS V14.01,2013-01-03 01:23:00,
2013-01-02 20:28:00,73.7,67.9,29.94,South,177,0.0,0.0,82,0.00,,---,0.00,VWS V14.01,2013-01-03 01:28:00,
2013-01-02 20:33:00,73.6,68.1,29.94,South,177,0.0,0.0,83,0.00,,---,0.00,VWS V14.01,2013-01-03 01:33:00,
2013-01-02 20:38:00,73.4,68.3,29.94,South,177,0.0,0.0,84,0.00,,---,0.00,VWS V14.01,2013-01-03 01:38:00,
2013-01-02 20:43:00,73.2,68.4,29.94,South,177,0.0,0.0,85,0.00,,---,0.00,VWS V14.01,2013-01-03 01:43:00,
2013-01-02 20:48:00,73.1,68.3,29.94,South,177,0.0,0.0,85,0.00,,---,0.00,VWS V14.01,2013-01-03 01:48:00,
2013-01-02 20:53:00,73.0,68.6,29.94,South,176,0.0,0.0,86,0.00,,---,0.00,VWS V14.01,2013-01-03 01:53:00,
2013-01-02 20:58:00,73.0,68.6,29.94,South,176,0.0,0.0,86,0.00,,---,0.00,VWS V14.01,2013-01-03 01:58:00,
2013-01-02 21:03:00,73.0,68.9,29.94,South,177,0.0,0.0,87,0.00,,---,0.00,VWS V14.01,2013-01-03 02:03:00,
2013-01-02 21:08:00,73.0,68.9,29.94,South,176,0.0,0.0,87,0.00,,---,0.00,VWS V14.01,2013-01-03 02:08:00,
2013-01-02 21:13:00,72.9,69.1,29.94,South,176,0.0,0.0,88,0.00,,---,0.00,VWS V14.01,2013-01-03 02:13:00,
2013-01-02 21:18:00,72.9,69.1,29.94,South,176,0.0,0.0,88,0.00,,---,0.00,VWS V14.01,2013-01-03 02:18:00,
2013-01-02 21:23:00,72.8,69.0,29.94,South,176,0.0,0.0,88,0.00,,---,0.00,VWS V14.01,2013-01-03 02:23:00,
2013-01-02 21:28:00,72.8,69.0,29.94,South,176,0.0,0.0,88,0.00,,---,0.00,VWS V14.01,2013-01-03 02:28:00,
2013-01-02 21:33:00,72.8,69.4,29.95,South,177,0.0,0.0,89,0.00,,---,0.00,VWS V14.01,2013-01-03 02:33:00,
2013-01-02 21:38:00,72.8,69.4,29.95,South,177,0.0,0.0,89,0.00,,---,0.00,VWS V14.01,2013-01-03 02:38:00,
2013-01-02 21:43:00,72.7,69.3,29.95,South,176,0.0,0.0,89,0.00,,---,0.00,VWS V14.01,2013-01-03 02:43:00,
2013-01-02 21:48:00,72.7,69.3,29.96,South,177,0.0,0.0,89,0.00,,---,0.00,VWS V14.01,2013-01-03 02:48:00,
2013-01-02 21:53:00,72.7,69.3,29.96,South,177,0.0,0.0,89,0.00,,---,0.00,VWS V14.01,2013-01-03 02:53:00,
2013-01-02 21:58:00,72.7,69.3,29.96,South,176,0.0,0.0,89,0.00,,---,0.00,VWS V14.01,2013-01-03 02:58:00,
2013-01-02 22:03:00,72.7,68.9,29.96,South,177,0.0,0.0,88,0.00,,---,0.00,VWS V14.01,2013-01-03 03:03:00,
2013-01-02 22:08:00,72.8,69.0,29.96,South,177,0.0,0.0,88,0.00,,---,0.00,VWS V14.01,2013-01-03 03:08:00,
2013-01-02 22:13:00,72.8,69.0,29.96,South,176,0.0,0.0,88,0.00,,---,0.00,VWS V14.01,2013-01-03 03:13:00,
2013-01-02 22:18:00,72.8,69.0,29.96,South,176,0.0,0.0,88,0.00,,---,0.00,VWS V14.01,2013-01-03 03:18:00,
2013-01-02 22:23:00,73.0,69.2,29.96,South,176,0.0,0.0,88,0.00,,---,0.00,VWS V14.01,2013-01-03 03:23:00,
2013-01-02 22:28:00,73.1,69.3,29.96,South,176,0.0,0.0,88,0.00,,---,0.00,VWS V14.01,2013-01-03 03:28:00,
2013-01-02 22:33:00,73.1,69.3,29.96,South,177,0.0,0.0,88,0.00,,---,0.00,VWS V14.01,2013-01-03 03:33:00,
2013-01-02 22:38:00,73.1,69.3,29.96,South,176,0.0,0.0,88,0.00,,---,0.00,VWS V14.01,2013-01-03 03:38:00,
2013-01-02 22:43:00,73.0,69.2,29.96,South,177,0.0,0.0,88,0.00,,---,0.00,VWS V14.01,2013-01-03 03:43:00,
2013-01-02 22:48:00,72.9,69.1,29.96,South,177,0.0,0.0,88,0.00,,---,0.00,VWS V14.01,2013-01-03 03:48:00,
2013-01-02 22:53:00,72.7,68.9,29.96,South,177,0.0,0.0,88,0.00,,---,0.00,VWS V14.01,2013-01-03 03:53:00,
2013-01-02 22:58:00,72.7,69.3,29.96,South,176,0.0,0.0,89,0.00,,---,0.00,VWS V14.01,2013-01-03 03:58:00,
2013-01-02 23:03:00,72.7,69.3,29.95,South,177,0.0,0.0,89,0.00,,---,0.00,VWS V14.01,2013-01-03 04:03:00,
2013-01-02 23:08:00,72.6,69.2,29.95,South,177,0.0,0.0,89,0.00,,---,0.00,VWS V14.01,2013-01-03 04:08:00,
2013-01-02 23:13:00,72.4,69.0,29.95,South,177,0.0,0.0,89,0.00,,---,0.00,VWS V14.01,2013-01-03 04:13:00,
2013-01-02 23:18:00,70.5,66.1,29.96,South,177,8.0,11.0,86,0.00,,---,0.00,VWS V14.01,2013-01-03 04:18:00,
2013-01-02 23:23:00,69.4,65.0,29.96,South,176,7.0,11.0,86,0.00,,---,0.00,VWS V14.01,2013-01-03 04:23:00,
2013-01-02 23:28:00,68.6,63.6,29.96,South,177,7.0,9.0,84,0.00,,---,0.00,VWS V14.01,2013-01-03 04:28:00,
2013-01-02 23:33:00,68.3,62.9,29.96,South,176,7.0,10.0,83,0.00,,---,0.00,VWS V14.01,2013-01-03 04:33:00,
2013-01-02 23:38:00,68.3,62.6,29.96,South,176,6.0,8.0,82,0.00,,---,0.00,VWS V14.01,2013-01-03 04:38:00,
2013-01-02 23:43:00,68.5,62.5,29.96,South,176,7.0,9.0,81,0.00,,---,0.00,VWS V14.01,2013-01-03 04:43:00,
2013-01-02 23:48:00,68.8,62.4,29.95,South,177,7.0,10.0,80,0.00,,---,0.00,VWS V14.01,2013-01-03 04:48:00,
2013-01-02 23:53:00,69.1,62.3,29.95,South,177,6.0,9.0,79,0.00,,---,0.00,VWS V14.01,2013-01-03 04:53:00,
2013-01-02 23:58:00,69.1,62.0,29.95,South,176,8.0,8.0,78,0.00,,---,0.00,VWS V14.01,2013-01-03 04:58:00,